createdAt,value
2019-03-22T00:00:36.038Z,99.99
2019-03-22T00:01:36.036Z,99.99
2019-03-22T00:02:36.031Z,99.99
2019-03-22T00:03:36.031Z,99.99
2019-03-22T00:04:36.061Z,99.99
2019-03-22T00:05:36.021Z,99.99
2019-03-22T00:06:36.015Z,99.99
2019-03-22T00:07:36.009Z,99.99
2019-03-22T00:08:36.008Z,99.99
2019-03-22T00:09:36.041Z,99.99
2019-03-22T00:10:36.003Z,99.99
2019-03-22T00:11:35.992Z,99.99
2019-03-22T00:12:36.029Z,99.99
2019-03-22T00:13:35.993Z,99.99
2019-03-22T00:14:37.170Z,99.99
2019-03-22T00:15:35.980Z,99.99
2019-03-22T00:16:35.968Z,99.99
2019-03-22T00:17:35.969Z,99.99
2019-03-22T00:18:36.006Z,99.99
2019-03-22T00:19:35.963Z,99.99
2019-03-22T00:20:35.964Z,99.99
2019-03-22T00:21:35.956Z,99.99
2019-03-22T00:22:35.951Z,99.99
2019-03-22T00:23:35.985Z,99.99
2019-03-22T00:24:35.980Z,99.99
2019-03-22T00:25:35.942Z,99.99
2019-03-22T00:26:35.933Z,99.99
2019-03-22T00:27:35.926Z,99.99
2019-03-22T00:28:35.936Z,99.99
2019-03-22T00:29:35.958Z,99.99
2019-03-22T00:30:35.916Z,99.99
2019-03-22T00:31:35.914Z,99.99
2019-03-22T00:32:35.910Z,99.99
2019-03-22T00:33:35.907Z,99.99
2019-03-22T00:34:35.933Z,99.99
2019-03-22T00:35:35.929Z,99.99
2019-03-22T00:36:35.887Z,99.99
2019-03-22T00:37:35.892Z,99.99
2019-03-22T00:38:35.890Z,99.99
2019-03-22T00:39:35.905Z,99.99
2019-03-22T00:40:35.877Z,99.99
2019-03-22T00:41:35.903Z,99.99
2019-03-22T00:42:35.864Z,99.99
2019-03-22T00:43:35.864Z,99.99
2019-03-22T00:44:35.888Z,99.99
2019-03-22T00:45:35.853Z,99.99
2019-03-22T00:46:35.844Z,99.99
2019-03-22T00:47:35.887Z,99.99
2019-03-22T00:48:35.841Z,99.99
2019-03-22T00:49:35.870Z,99.99
2019-03-22T00:50:35.833Z,99.99
2019-03-22T00:51:35.827Z,99.99
2019-03-22T00:52:35.821Z,99.99
2019-03-22T00:53:35.825Z,99.99
2019-03-22T00:54:35.820Z,99.99
2019-03-22T00:55:35.851Z,99.99
2019-03-22T00:56:35.808Z,99.99
2019-03-22T00:57:35.800Z,99.99
2019-03-22T00:58:35.793Z,99.99
2019-03-22T00:59:35.794Z,99.99
2019-03-22T01:00:35.847Z,99.99
2019-03-22T01:01:35.782Z,99.99
2019-03-22T01:02:35.777Z,99.99
2019-03-22T01:03:35.774Z,99.99
2019-03-22T01:04:35.773Z,99.99
2019-03-22T01:05:35.801Z,99.99
2019-03-22T01:06:35.758Z,99.99
2019-03-22T01:07:35.755Z,99.99
2019-03-22T01:08:35.755Z,99.99
2019-03-22T01:09:35.749Z,99.99
2019-03-22T01:10:35.780Z,99.99
2019-03-22T01:11:35.741Z,99.99
2019-03-22T01:12:35.736Z,99.99
2019-03-22T01:13:35.742Z,99.99
2019-03-22T01:14:35.730Z,99.99
2019-03-22T01:15:35.762Z,99.99
2019-03-22T01:16:35.713Z,99.99
2019-03-22T01:17:35.716Z,99.99
2019-03-22T01:18:35.710Z,99.99
2019-03-22T01:19:35.704Z,99.99
2019-03-22T01:20:35.738Z,99.99
2019-03-22T01:21:35.697Z,99.99
2019-03-22T01:22:35.693Z,99.99
2019-03-22T01:23:35.686Z,99.99
2019-03-22T01:24:35.681Z,99.99
2019-03-22T01:25:35.706Z,99.99
2019-03-22T01:26:35.672Z,99.99
2019-03-22T01:27:40.342Z,99.99
2019-03-22T01:28:35.666Z,99.99
2019-03-22T01:29:35.656Z,99.99
2019-03-22T01:30:35.661Z,99.99
2019-03-22T01:31:35.690Z,99.99
2019-03-22T01:32:35.671Z,99.99
2019-03-22T01:33:35.641Z,99.99
2019-03-22T01:34:35.646Z,99.99
2019-03-22T01:35:35.675Z,99.99
2019-03-22T01:36:35.630Z,99.99
2019-03-22T01:37:35.627Z,99.99
2019-03-22T01:38:35.628Z,99.99
2019-03-22T01:39:35.611Z,99.99
2019-03-22T01:40:35.633Z,99.99
2019-03-22T01:41:35.642Z,99.99
2019-03-22T01:42:35.603Z,99.99
2019-03-22T01:43:35.598Z,99.99
2019-03-22T01:44:35.598Z,99.99
2019-03-22T01:45:35.627Z,99.99
2019-03-22T01:46:35.582Z,99.99
2019-03-22T01:47:35.578Z,99.99
2019-03-22T01:48:35.570Z,99.99
2019-03-22T01:49:35.574Z,99.99
2019-03-22T01:50:35.602Z,99.99
2019-03-22T01:51:35.559Z,99.99
2019-03-22T01:52:35.563Z,99.99
2019-03-22T01:53:35.547Z,99.99
2019-03-22T01:54:35.543Z,99.99
2019-03-22T01:55:35.575Z,99.99
2019-03-22T01:56:35.570Z,99.99
2019-03-22T01:57:35.534Z,99.99
2019-03-22T01:58:35.527Z,99.99
2019-03-22T01:59:35.525Z,99.99
2019-03-22T02:00:35.518Z,99.99
2019-03-22T02:01:35.511Z,99.99
2019-03-22T02:02:35.544Z,99.99
2019-03-22T02:03:35.503Z,99.99
2019-03-22T02:04:35.501Z,99.99
2019-03-22T02:05:35.497Z,99.99
2019-03-22T02:06:35.529Z,99.99
2019-03-22T02:07:35.483Z,99.99
2019-03-22T02:08:35.481Z,99.99
2019-03-22T02:09:35.476Z,99.99
2019-03-22T02:10:35.473Z,99.99
2019-03-22T02:11:35.498Z,99.99
2019-03-22T02:12:35.465Z,99.99
2019-03-22T02:13:35.463Z,99.99
2019-03-22T02:14:35.455Z,99.99
2019-03-22T02:15:35.444Z,99.99
2019-03-22T02:16:35.480Z,99.99
2019-03-22T02:17:35.437Z,99.99
2019-03-22T02:18:35.432Z,99.99
2019-03-22T02:19:35.430Z,99.99
2019-03-22T02:20:35.425Z,99.99
2019-03-22T02:21:35.448Z,99.99
2019-03-22T02:22:35.452Z,99.99
2019-03-22T02:23:35.448Z,99.99
2019-03-22T02:24:35.404Z,99.99
2019-03-22T02:25:35.399Z,99.99
2019-03-22T02:26:35.431Z,99.99
2019-03-22T02:27:35.388Z,99.99
2019-03-22T02:28:35.381Z,99.99
2019-03-22T02:29:35.380Z,99.99
2019-03-22T02:30:35.378Z,99.99
2019-03-22T02:31:35.415Z,99.99
2019-03-22T02:32:35.363Z,99.99
2019-03-22T02:33:35.401Z,99.99
2019-03-22T02:34:35.361Z,99.99
2019-03-22T02:35:35.357Z,99.99
2019-03-22T02:36:35.378Z,99.99
2019-03-22T02:37:35.346Z,99.99
2019-03-22T02:38:35.336Z,99.99
2019-03-22T02:39:35.422Z,99.99
2019-03-22T02:40:35.352Z,99.99
2019-03-22T02:41:35.360Z,99.99
2019-03-22T02:42:35.327Z,99.99
2019-03-22T02:43:35.313Z,99.99
2019-03-22T02:44:35.308Z,99.99
2019-03-22T02:45:35.308Z,99.99
2019-03-22T02:46:35.331Z,99.99
2019-03-22T02:47:35.324Z,99.99
2019-03-22T02:48:35.293Z,99.99
2019-03-22T02:49:35.284Z,99.99
2019-03-22T02:50:35.289Z,99.99
2019-03-22T02:51:35.305Z,99.99
2019-03-22T02:52:35.273Z,99.99
2019-03-22T02:53:35.319Z,99.99
2019-03-22T02:54:35.259Z,99.99
2019-03-22T02:55:35.257Z,99.99
2019-03-22T02:56:35.296Z,99.99
2019-03-22T02:57:35.241Z,99.99
2019-03-22T02:58:35.247Z,99.99
2019-03-22T02:59:35.275Z,99.99
2019-03-22T03:00:35.243Z,99.99
2019-03-22T03:01:35.260Z,99.99
2019-03-22T03:02:35.221Z,99.99
2019-03-22T03:03:35.220Z,99.99
2019-03-22T03:04:35.212Z,99.99
2019-03-22T03:05:35.211Z,99.99
2019-03-22T03:06:35.230Z,99.99
2019-03-22T03:07:35.234Z,99.99
2019-03-22T03:08:35.197Z,99.99
2019-03-22T03:09:35.191Z,99.99
2019-03-22T03:10:35.186Z,99.99
2019-03-22T03:11:35.222Z,99.99
2019-03-22T03:12:35.180Z,99.99
2019-03-22T03:13:35.171Z,99.99
2019-03-22T03:14:35.159Z,99.99
2019-03-22T03:15:35.167Z,99.99
2019-03-22T03:16:35.214Z,99.99
2019-03-22T03:17:35.185Z,99.99
2019-03-22T03:18:35.153Z,99.99
2019-03-22T03:19:35.144Z,99.99
2019-03-22T03:20:35.137Z,99.99
2019-03-22T03:21:35.160Z,99.99
2019-03-22T03:22:35.126Z,99.99
2019-03-22T03:23:35.169Z,99.99
2019-03-22T03:24:35.128Z,99.99
2019-03-22T03:25:35.128Z,99.99
2019-03-22T03:26:35.134Z,99.99
2019-03-22T03:27:35.095Z,99.99
2019-03-22T03:28:37.204Z,99.99
2019-03-22T03:29:35.134Z,99.71
2019-03-22T03:30:35.082Z,99.99
2019-03-22T03:31:35.088Z,99.33
2019-03-22T03:32:35.077Z,99.43
2019-03-22T03:33:35.106Z,99.71
2019-03-22T03:34:35.071Z,99.29
2019-03-22T03:35:35.066Z,99.33
2019-03-22T03:36:35.185Z,98.86
2019-03-22T03:37:35.051Z,98.86
2019-03-22T03:38:35.043Z,98.11
2019-03-22T03:39:35.086Z,97.63
2019-03-22T03:40:35.044Z,97.16
2019-03-22T03:41:35.034Z,96.40
2019-03-22T03:42:35.067Z,95.26
2019-03-22T03:43:35.014Z,95.07
2019-03-22T03:44:35.023Z,94.32
2019-03-22T03:45:35.012Z,93.94
2019-03-22T03:46:35.011Z,93.65
2019-03-22T03:47:35.045Z,93.08
2019-03-22T03:48:35.002Z,93.37
2019-03-22T03:49:35.007Z,93.27
2019-03-22T03:50:34.988Z,93.37
2019-03-22T03:51:34.988Z,93.37
2019-03-22T03:52:35.021Z,92.80
2019-03-22T03:53:34.974Z,93.18
2019-03-22T03:54:34.971Z,92.52
2019-03-22T03:55:34.971Z,92.61
2019-03-22T03:56:34.959Z,92.80
2019-03-22T03:57:34.984Z,91.95
2019-03-22T03:58:34.983Z,91.76
2019-03-22T03:59:34.939Z,90.15
2019-03-22T04:00:34.937Z,88.92
2019-03-22T04:01:34.933Z,87.40
2019-03-22T04:02:34.959Z,85.89
2019-03-22T04:03:34.922Z,84.85
2019-03-22T04:04:34.961Z,83.62
2019-03-22T04:05:34.915Z,83.33
2019-03-22T04:06:34.922Z,81.82
2019-03-22T04:07:34.941Z,81.63
2019-03-22T04:08:34.896Z,81.15
2019-03-22T04:09:34.898Z,81.15
2019-03-22T04:10:34.938Z,80.96
2019-03-22T04:11:34.882Z,80.49
2019-03-22T04:12:34.902Z,80.11
2019-03-22T04:13:34.875Z,79.83
2019-03-22T04:14:34.871Z,79.45
2019-03-22T04:15:34.867Z,78.59
2019-03-22T04:16:34.895Z,78.13
2019-03-22T04:17:34.874Z,77.61
2019-03-22T04:18:34.853Z,77.70
2019-03-22T04:19:34.838Z,77.61
2019-03-22T04:20:34.853Z,77.33
2019-03-22T04:21:34.831Z,77.04
2019-03-22T04:22:36.377Z,76.80
2019-03-22T04:23:34.934Z,75.95
2019-03-22T04:24:34.820Z,75.28
2019-03-22T04:25:34.817Z,73.96
2019-03-22T04:26:34.816Z,74.02
2019-03-22T04:27:34.802Z,73.54
2019-03-22T04:28:34.874Z,73.26
2019-03-22T04:29:34.795Z,72.88
2019-03-22T04:30:34.788Z,72.41
2019-03-22T04:31:34.781Z,72.12
2019-03-22T04:32:34.776Z,72.03
2019-03-22T04:33:34.842Z,71.17
2019-03-22T04:34:34.804Z,70.79
2019-03-22T04:35:34.764Z,70.36
2019-03-22T04:36:34.764Z,69.13
2019-03-22T04:37:34.747Z,67.99
2019-03-22T04:38:34.776Z,65.72
2019-03-22T04:39:34.749Z,64.96
2019-03-22T04:40:34.778Z,64.39
2019-03-22T04:41:34.731Z,63.64
2019-03-22T04:42:34.731Z,63.73
2019-03-22T04:43:34.752Z,62.97
2019-03-22T04:44:34.714Z,62.88
2019-03-22T04:45:34.717Z,62.69
2019-03-22T04:46:34.750Z,62.40
2019-03-22T04:47:34.704Z,62.12
2019-03-22T04:48:34.726Z,61.93
2019-03-22T04:49:34.693Z,62.02
2019-03-22T04:50:34.691Z,62.40
2019-03-22T04:51:34.689Z,62.02
2019-03-22T04:52:34.717Z,62.31
2019-03-22T04:53:34.703Z,61.83
2019-03-22T04:54:34.664Z,62.02
2019-03-22T04:55:34.662Z,61.36
2019-03-22T04:56:34.659Z,61.36
2019-03-22T04:57:34.663Z,62.12
2019-03-22T04:58:34.687Z,62.21
2019-03-22T04:59:34.646Z,62.21
2019-03-22T05:00:34.646Z,62.18
2019-03-22T05:01:34.633Z,61.55
2019-03-22T05:02:34.632Z,62.12
2019-03-22T05:03:34.655Z,62.09
2019-03-22T05:04:34.617Z,62.09
2019-03-22T05:05:34.615Z,61.71
2019-03-22T05:06:34.602Z,61.90
2019-03-22T05:07:34.598Z,61.90
2019-03-22T05:08:34.631Z,61.52
2019-03-22T05:09:34.647Z,61.74
2019-03-22T05:10:34.590Z,61.36
2019-03-22T05:11:34.609Z,60.89
2019-03-22T05:12:34.579Z,60.89
2019-03-22T05:13:34.603Z,60.32
2019-03-22T05:14:34.568Z,60.13
2019-03-22T05:15:34.602Z,60.32
2019-03-22T05:16:34.558Z,59.94
2019-03-22T05:17:34.549Z,59.94
2019-03-22T05:18:34.574Z,59.66
2019-03-22T05:19:35.320Z,59.66
2019-03-22T05:20:34.542Z,58.90
2019-03-22T05:21:34.570Z,58.81
2019-03-22T05:22:34.526Z,57.76
2019-03-22T05:23:34.553Z,57.95
2019-03-22T05:24:34.520Z,57.48
2019-03-22T05:25:34.515Z,57.01
2019-03-22T05:26:34.507Z,57.10
2019-03-22T05:27:34.505Z,57.10
2019-03-22T05:28:34.502Z,57.39
2019-03-22T05:29:34.540Z,57.86
2019-03-22T05:30:35.314Z,57.86
2019-03-22T05:31:34.488Z,57.95
2019-03-22T05:32:34.489Z,58.24
2019-03-22T05:33:34.476Z,58.33
2019-03-22T05:34:34.503Z,58.33
2019-03-22T05:35:34.520Z,58.24
2019-03-22T05:36:34.462Z,58.81
2019-03-22T05:37:34.453Z,58.71
2019-03-22T05:38:34.448Z,58.93
2019-03-22T05:39:34.484Z,59.59
2019-03-22T05:40:34.442Z,59.59
2019-03-22T05:41:34.441Z,59.59
2019-03-22T05:42:34.432Z,60.06
2019-03-22T05:43:34.423Z,59.78
2019-03-22T05:44:34.454Z,60.25
2019-03-22T05:45:34.414Z,60.54
2019-03-22T05:46:34.412Z,60.64
2019-03-22T05:47:34.409Z,61.40
2019-03-22T05:48:34.417Z,63.29
2019-03-22T05:49:34.436Z,64.04
2019-03-22T05:50:34.400Z,63.95
2019-03-22T05:51:34.392Z,64.52
2019-03-22T05:52:34.379Z,63.39
2019-03-22T05:53:34.379Z,63.01
2019-03-22T05:54:34.418Z,62.43
2019-03-22T05:55:34.372Z,63.48
2019-03-22T05:56:34.359Z,63.57
2019-03-22T05:57:34.363Z,63.95
2019-03-22T05:58:34.360Z,66.51
2019-03-22T05:59:42.577Z,68.50
2019-03-22T06:00:34.353Z,68.88
2019-03-22T06:01:34.350Z,68.79
2019-03-22T06:02:34.343Z,67.40
2019-03-22T06:03:34.336Z,65.97
2019-03-22T06:04:34.368Z,64.93
2019-03-22T06:05:34.335Z,65.78
2019-03-22T06:06:34.320Z,65.97
2019-03-22T06:07:36.885Z,67.21
2019-03-22T06:08:34.307Z,68.73
2019-03-22T06:09:34.363Z,67.77
2019-03-22T06:10:34.465Z,69.20
2019-03-22T06:11:34.302Z,73.50
2019-03-22T06:12:34.291Z,76.21
2019-03-22T06:13:34.300Z,86.83
2019-03-22T06:14:34.333Z,92.33
2019-03-22T06:15:34.287Z,94.13
2019-03-22T06:16:34.281Z,94.13
2019-03-22T06:17:34.291Z,93.37
2019-03-22T06:18:34.278Z,93.37
2019-03-22T06:19:34.302Z,94.32
2019-03-22T06:20:34.309Z,94.04
2019-03-22T06:21:34.267Z,94.74
2019-03-22T06:22:34.266Z,95.41
2019-03-22T06:23:34.263Z,97.78
2019-03-22T06:24:34.291Z,99.99
2019-03-22T06:25:34.259Z,99.99
2019-03-22T06:26:34.251Z,99.99
2019-03-22T06:27:34.246Z,99.99
2019-03-22T06:28:34.245Z,99.99
2019-03-22T06:29:34.267Z,99.99
2019-03-22T06:30:34.274Z,99.99
2019-03-22T06:31:34.234Z,99.99
2019-03-22T06:32:34.233Z,99.99
2019-03-22T06:33:34.233Z,99.99
2019-03-22T06:34:34.241Z,99.99
2019-03-22T06:35:34.279Z,99.99
2019-03-22T06:36:34.231Z,99.99
2019-03-22T06:37:34.228Z,99.99
2019-03-22T06:38:34.214Z,99.99
2019-03-22T06:39:34.233Z,99.99
2019-03-22T06:40:34.270Z,99.99
2019-03-22T06:41:34.213Z,99.99
2019-03-22T06:42:34.207Z,99.99
2019-03-22T06:43:34.246Z,99.99
2019-03-22T06:44:34.208Z,99.99
2019-03-22T06:45:34.234Z,99.99
2019-03-22T06:46:34.239Z,99.99
2019-03-22T06:47:34.243Z,99.99
2019-03-22T06:48:34.210Z,99.99
2019-03-22T06:49:34.200Z,99.99
2019-03-22T06:50:34.231Z,99.99
2019-03-22T06:51:34.196Z,99.99
2019-03-22T06:52:34.193Z,99.99
2019-03-22T06:53:34.200Z,99.99
2019-03-22T06:54:34.196Z,99.99
2019-03-22T06:55:34.232Z,99.99
2019-03-22T06:56:34.195Z,99.99
2019-03-22T06:57:34.189Z,99.99
2019-03-22T06:58:34.192Z,99.99
2019-03-22T06:59:34.196Z,99.99
2019-03-22T07:00:34.236Z,99.99
2019-03-22T07:01:34.193Z,99.99
2019-03-22T07:02:34.198Z,99.99
2019-03-22T07:03:34.200Z,99.99
2019-03-22T07:04:34.202Z,99.99
2019-03-22T07:05:34.237Z,99.99
2019-03-22T07:06:34.200Z,99.99
2019-03-22T07:07:34.231Z,99.99
2019-03-22T07:08:34.200Z,99.99
2019-03-22T07:09:34.206Z,99.99
2019-03-22T07:10:34.245Z,99.99
2019-03-22T07:11:34.204Z,99.99
2019-03-22T07:12:34.207Z,99.99
2019-03-22T07:13:34.216Z,99.99
2019-03-22T07:14:34.213Z,99.99
2019-03-22T07:15:34.244Z,99.99
2019-03-22T07:16:34.223Z,99.99
2019-03-22T07:17:34.217Z,99.99
2019-03-22T07:18:34.220Z,99.99
2019-03-22T07:19:34.222Z,99.99
2019-03-22T07:20:34.219Z,99.99
2019-03-22T07:21:34.260Z,99.99
2019-03-22T07:22:34.229Z,99.99
2019-03-22T07:23:34.223Z,99.99
2019-03-22T07:24:34.228Z,99.99
2019-03-22T07:25:34.247Z,99.99
2019-03-22T07:26:34.276Z,99.99
2019-03-22T07:27:34.242Z,99.99
2019-03-22T07:28:34.253Z,99.99
2019-03-22T07:29:34.313Z,99.99
2019-03-22T07:30:34.245Z,99.99
2019-03-22T07:31:35.865Z,99.99
2019-03-22T07:32:34.255Z,99.99
2019-03-22T07:33:34.264Z,99.99
2019-03-22T07:34:34.264Z,99.99
2019-03-22T07:35:34.270Z,99.99
2019-03-22T07:36:34.309Z,99.99
2019-03-22T07:37:34.271Z,99.57
2019-03-22T07:38:34.283Z,99.99
2019-03-22T07:39:34.283Z,99.99
2019-03-22T07:40:34.296Z,99.99
2019-03-22T07:41:34.324Z,99.99
2019-03-22T07:42:34.292Z,99.99
2019-03-22T07:43:34.296Z,98.95
2019-03-22T07:44:34.305Z,99.99
2019-03-22T07:45:34.309Z,99.99
2019-03-22T07:46:34.343Z,98.28
2019-03-22T07:47:34.313Z,97.28
2019-03-22T07:48:34.320Z,95.94
2019-03-22T07:49:34.324Z,94.40
2019-03-22T07:50:34.327Z,94.69
2019-03-22T07:51:34.377Z,93.93
2019-03-22T07:52:34.335Z,95.84
2019-03-22T07:53:34.348Z,97.28
2019-03-22T07:54:34.347Z,97.33
2019-03-22T07:55:34.355Z,96.94
2019-03-22T07:56:34.392Z,96.37
2019-03-22T07:57:34.413Z,97.85
2019-03-22T07:58:34.378Z,99.99
2019-03-22T07:59:34.389Z,99.99
2019-03-22T08:00:34.380Z,99.99
2019-03-22T08:01:34.432Z,99.99
2019-03-22T08:02:34.397Z,99.99
2019-03-22T08:03:34.400Z,99.99
2019-03-22T08:04:34.410Z,99.62
2019-03-22T08:05:34.421Z,97.18
2019-03-22T08:06:34.465Z,96.84
2019-03-22T08:07:34.436Z,94.74
2019-03-22T08:08:34.440Z,94.98
2019-03-22T08:09:34.476Z,92.77
2019-03-22T08:10:34.534Z,91.09
2019-03-22T08:11:34.485Z,89.41
2019-03-22T08:12:34.525Z,89.12
2019-03-22T08:13:34.481Z,88.45
2019-03-22T08:14:34.489Z,87.63
2019-03-22T08:15:34.504Z,86.92
2019-03-22T08:16:34.498Z,86.05
2019-03-22T08:17:34.538Z,87.35
2019-03-22T08:18:34.558Z,87.98
2019-03-22T08:19:34.553Z,88.51
2019-03-22T08:20:34.533Z,87.64
2019-03-22T08:21:34.576Z,88.56
2019-03-22T08:22:34.551Z,90.53
2019-03-22T08:23:34.561Z,96.42
2019-03-22T08:24:34.568Z,92.48
2019-03-22T08:25:34.575Z,88.54
2019-03-22T08:26:34.626Z,85.03
2019-03-22T08:27:34.627Z,83.59
2019-03-22T08:28:34.607Z,82.96
2019-03-22T08:29:34.631Z,82.90
2019-03-22T08:30:42.868Z,81.37
2019-03-22T08:31:34.666Z,80.40
2019-03-22T08:32:34.659Z,79.98
2019-03-22T08:33:34.669Z,79.44
2019-03-22T08:34:34.657Z,79.50
2019-03-22T08:35:34.700Z,79.40
2019-03-22T08:36:34.756Z,80.27
2019-03-22T08:37:34.738Z,80.75
2019-03-22T08:38:34.710Z,80.42
2019-03-22T08:39:34.713Z,81.09
2019-03-22T08:40:34.750Z,81.13
2019-03-22T08:41:34.738Z,81.04
2019-03-22T08:42:34.786Z,80.65
2019-03-22T08:43:34.758Z,79.35
2019-03-22T08:44:34.770Z,78.38
2019-03-22T08:45:34.815Z,78.28
2019-03-22T08:46:34.793Z,77.84
2019-03-22T08:47:34.911Z,77.17
2019-03-22T08:48:34.815Z,77.36
2019-03-22T08:49:34.911Z,77.26
2019-03-22T08:50:34.996Z,77.17
2019-03-22T08:51:34.847Z,78.23
2019-03-22T08:52:34.919Z,76.98
2019-03-22T08:53:34.917Z,78.28
2019-03-22T08:54:37.947Z,77.75
2019-03-22T08:55:34.898Z,77.36
2019-03-22T08:56:36.226Z,75.73
2019-03-22T08:57:34.963Z,75.56
2019-03-22T08:58:34.951Z,77.42
2019-03-22T08:59:34.946Z,80.64
2019-03-22T09:00:39.447Z,83.19
2019-03-22T09:01:34.980Z,84.91
2019-03-22T09:02:35.011Z,87.02
2019-03-22T09:03:34.998Z,86.74
2019-03-22T09:04:35.006Z,86.97
2019-03-22T09:05:35.024Z,87.16
2019-03-22T09:06:35.069Z,85.77
2019-03-22T09:07:35.083Z,85.38
2019-03-22T09:08:35.099Z,85.42
2019-03-22T09:09:41.388Z,85.57
2019-03-22T09:10:35.184Z,84.45
2019-03-22T09:11:35.094Z,83.15
2019-03-22T09:12:35.139Z,81.13
2019-03-22T09:13:35.156Z,79.60
2019-03-22T09:14:35.140Z,79.11
2019-03-22T09:15:41.233Z,81.09
2019-03-22T09:16:35.156Z,82.40
2019-03-22T09:17:35.207Z,82.15
2019-03-22T09:18:35.178Z,82.43
2019-03-22T09:19:35.234Z,83.01
2019-03-22T09:20:35.205Z,81.13
2019-03-22T09:21:35.253Z,81.27
2019-03-22T09:22:35.272Z,79.35
2019-03-22T09:23:35.263Z,78.90
2019-03-22T09:24:39.359Z,78.33
2019-03-22T09:25:35.307Z,77.98
2019-03-22T09:26:47.161Z,76.53
2019-03-22T09:27:36.610Z,77.44
2019-03-22T09:28:35.330Z,76.80
2019-03-22T09:29:35.339Z,75.65
2019-03-22T09:30:35.406Z,74.68
2019-03-22T09:31:35.380Z,74.24
2019-03-22T09:32:35.423Z,75.62
2019-03-22T09:33:35.469Z,74.62
2019-03-22T09:34:35.372Z,73.89
2019-03-22T09:35:35.419Z,74.60
2019-03-22T09:36:35.430Z,71.70
2019-03-22T09:37:35.448Z,71.22
2019-03-22T09:38:35.480Z,72.09
2019-03-22T09:39:35.485Z,72.13
2019-03-22T09:40:35.456Z,71.64
2019-03-22T09:41:35.468Z,70.04
2019-03-22T09:42:35.494Z,71.64
2019-03-22T09:43:35.532Z,71.06
2019-03-22T09:44:43.427Z,70.74
2019-03-22T09:45:35.528Z,72.28
2019-03-22T09:46:35.564Z,72.71
2019-03-22T09:47:35.572Z,72.32
2019-03-22T09:48:35.626Z,71.16
2019-03-22T09:49:35.617Z,69.39
2019-03-22T09:50:35.725Z,70.42
2019-03-22T09:51:35.660Z,71.06
2019-03-22T09:52:35.706Z,72.73
2019-03-22T09:53:35.715Z,73.41
2019-03-22T09:54:35.739Z,71.32
2019-03-22T09:55:35.697Z,71.50
2019-03-22T09:56:46.444Z,75.65
2019-03-22T09:57:35.733Z,76.78
2019-03-22T09:58:36.510Z,72.92
2019-03-22T09:59:35.802Z,73.41
2019-03-22T10:00:35.797Z,72.80
2019-03-22T10:01:35.824Z,71.78
2019-03-22T10:02:35.894Z,70.87
2019-03-22T10:03:35.869Z,71.62
2019-03-22T10:04:35.906Z,76.32
2019-03-22T10:05:35.940Z,80.94
2019-03-22T10:06:35.965Z,79.05
2019-03-22T10:07:35.908Z,77.90
2019-03-22T10:08:35.999Z,78.58
2019-03-22T10:09:35.983Z,79.33
2019-03-22T10:10:36.019Z,77.90
2019-03-22T10:11:35.979Z,78.94
2019-03-22T10:12:36.001Z,80.47
2019-03-22T10:13:36.073Z,81.05
2019-03-22T10:14:36.072Z,84.40
2019-03-22T10:15:36.113Z,80.17
2019-03-22T10:16:36.113Z,79.88
2019-03-22T10:17:36.130Z,80.04
2019-03-22T10:18:37.011Z,82.04
2019-03-22T10:19:36.183Z,80.30
2019-03-22T10:20:36.256Z,79.40
2019-03-22T10:21:36.181Z,79.71
2019-03-22T10:22:36.232Z,82.52
2019-03-22T10:23:36.266Z,80.48
2019-03-22T10:24:36.284Z,77.04
2019-03-22T10:25:36.239Z,78.69
2019-03-22T10:26:36.311Z,80.94
2019-03-22T10:27:36.311Z,79.35
2019-03-22T10:28:36.294Z,77.50
2019-03-22T10:29:36.362Z,77.76
2019-03-22T10:30:36.342Z,74.84
2019-03-22T10:31:37.652Z,76.81
2019-03-22T10:32:36.471Z,82.56
2019-03-22T10:33:36.409Z,80.00
2019-03-22T10:34:39.572Z,78.98
2019-03-22T10:35:36.422Z,76.28
2019-03-22T10:36:36.494Z,76.86
2019-03-22T10:37:36.448Z,80.15
2019-03-22T10:38:36.518Z,82.40
2019-03-22T10:39:36.542Z,84.11
2019-03-22T10:40:36.581Z,83.86
2019-03-22T10:41:36.580Z,81.17
2019-03-22T10:42:36.553Z,79.13
2019-03-22T10:43:36.601Z,77.92
2019-03-22T10:44:39.298Z,77.15
2019-03-22T10:45:36.638Z,76.03
2019-03-22T10:46:36.607Z,75.96
2019-03-22T10:47:36.635Z,78.65
2019-03-22T10:48:36.672Z,78.31
2019-03-22T10:49:36.699Z,78.15
2019-03-22T10:50:36.732Z,75.59
2019-03-22T10:51:36.700Z,76.55
2019-03-22T10:52:36.762Z,76.20
2019-03-22T10:53:36.729Z,75.65
2019-03-22T10:54:36.779Z,75.07
2019-03-22T10:55:36.804Z,75.65
2019-03-22T10:56:36.788Z,74.62
2019-03-22T10:57:40.065Z,74.71
2019-03-22T10:58:36.830Z,78.09
2019-03-22T10:59:36.987Z,78.67
2019-03-22T11:00:36.861Z,81.88
2019-03-22T11:01:48.293Z,78.11
2019-03-22T11:02:36.919Z,80.09
2019-03-22T11:03:37.044Z,82.01
2019-03-22T11:04:36.933Z,83.49
2019-03-22T11:05:36.985Z,81.01
2019-03-22T11:06:36.969Z,83.85
2019-03-22T11:07:36.986Z,85.58
2019-03-22T11:08:37.007Z,83.98
2019-03-22T11:09:37.060Z,83.41
2019-03-22T11:10:37.154Z,84.11
2019-03-22T11:11:37.087Z,81.27
2019-03-22T11:12:37.081Z,80.15
2019-03-22T11:13:37.101Z,79.48
2019-03-22T11:14:37.158Z,80.15
2019-03-22T11:15:37.177Z,79.52
2019-03-22T11:16:37.151Z,76.38
2019-03-22T11:17:37.166Z,77.11
2019-03-22T11:18:37.780Z,76.38
2019-03-22T11:19:37.211Z,75.96
2019-03-22T11:20:37.254Z,77.11
2019-03-22T11:21:37.240Z,77.44
2019-03-22T11:22:37.258Z,75.99
2019-03-22T11:23:37.281Z,75.05
2019-03-22T11:24:37.295Z,76.04
2019-03-22T11:25:37.345Z,78.17
2019-03-22T11:26:37.368Z,80.13
2019-03-22T11:27:37.355Z,78.94
2019-03-22T11:28:37.366Z,79.88
2019-03-22T11:29:37.382Z,79.36
2019-03-22T11:30:37.440Z,79.99
2019-03-22T11:31:40.052Z,79.76
2019-03-22T11:32:37.443Z,83.59
2019-03-22T11:33:37.459Z,80.79
2019-03-22T11:34:37.479Z,78.03
2019-03-22T11:35:37.524Z,78.33
2019-03-22T11:36:37.548Z,78.27
2019-03-22T11:37:37.527Z,75.98
2019-03-22T11:38:37.544Z,77.84
2019-03-22T11:39:37.564Z,75.94
2019-03-22T11:40:37.627Z,77.63
2019-03-22T11:41:37.602Z,79.71
2019-03-22T11:42:37.617Z,81.84
2019-03-22T11:43:37.618Z,79.98
2019-03-22T11:44:37.647Z,78.69
2019-03-22T11:45:37.702Z,79.69
2019-03-22T11:46:37.681Z,80.17
2019-03-22T11:47:37.693Z,78.92
2019-03-22T11:48:37.722Z,78.59
2019-03-22T11:49:37.733Z,79.40
2019-03-22T11:50:37.785Z,79.11
2019-03-22T11:51:37.767Z,78.44
2019-03-22T11:52:37.785Z,79.40
2019-03-22T11:53:37.835Z,79.17
2019-03-22T11:54:37.819Z,78.44
2019-03-22T11:55:37.878Z,81.02
2019-03-22T11:56:37.866Z,77.94
2019-03-22T11:57:37.878Z,78.08
2019-03-22T11:58:37.930Z,75.82
2019-03-22T11:59:37.943Z,76.32
2019-03-22T12:00:37.958Z,78.53
2019-03-22T12:01:37.943Z,77.76
2019-03-22T12:02:37.966Z,77.04
2019-03-22T12:03:40.368Z,77.67
2019-03-22T12:04:38.028Z,79.65
2019-03-22T12:05:40.622Z,79.07
2019-03-22T12:06:38.038Z,79.50
2019-03-22T12:07:38.065Z,78.83
2019-03-22T12:08:38.102Z,79.88
2019-03-22T12:09:38.087Z,79.17
2019-03-22T12:10:38.197Z,79.36
2019-03-22T12:11:38.136Z,80.40
2019-03-22T12:12:38.138Z,78.06
2019-03-22T12:13:38.200Z,79.21
2019-03-22T12:14:38.174Z,79.88
2019-03-22T12:15:38.232Z,79.50
2019-03-22T12:16:38.211Z,79.88
2019-03-22T12:17:38.227Z,79.21
2019-03-22T12:18:38.243Z,79.27
2019-03-22T12:19:38.261Z,81.71
2019-03-22T12:20:38.317Z,78.48
2019-03-22T12:21:38.286Z,77.58
2019-03-22T12:22:38.582Z,78.34
2019-03-22T12:23:38.333Z,79.67
2019-03-22T12:24:38.345Z,79.48
2019-03-22T12:25:38.400Z,78.48
2019-03-22T12:26:38.412Z,79.27
2019-03-22T12:27:38.390Z,80.71
2019-03-22T12:28:38.415Z,80.75
2019-03-22T12:29:38.466Z,81.56
2019-03-22T12:30:38.487Z,79.36
2019-03-22T12:31:38.502Z,81.38
2019-03-22T12:32:38.518Z,80.94
2019-03-22T12:33:38.500Z,81.23
2019-03-22T12:34:38.518Z,80.84
2019-03-22T12:35:38.530Z,82.52
2019-03-22T12:36:38.548Z,80.27
2019-03-22T12:37:38.608Z,81.61
2019-03-22T12:38:38.627Z,81.56
2019-03-22T12:39:38.584Z,79.38
2019-03-22T12:40:38.633Z,78.48
2019-03-22T12:41:38.680Z,80.73
2019-03-22T12:42:38.663Z,79.55
2019-03-22T12:43:38.681Z,81.05
2019-03-22T12:44:38.732Z,81.96
2019-03-22T12:45:38.718Z,81.09
2019-03-22T12:46:38.732Z,81.99
2019-03-22T12:47:38.777Z,82.61
2019-03-22T12:48:38.780Z,80.65
2019-03-22T12:49:38.818Z,81.92
2019-03-22T12:50:38.840Z,84.36
2019-03-22T12:51:38.851Z,82.82
2019-03-22T12:52:38.831Z,82.29